Time;durP1;ratioP1;P1;durP2;ratioP2;P2;SDS_P1;SDS_P2;PMS_P1;PMS_P2;Temp;Humidity;BMP_temperature;BMP_pressure;BME280_temperature;BME280_humidity;BME280_pressure;Samples;Min_cycle;Max_cycle;Signal;HPM_P1;HPM_P2
2024/01/13 00:01:32;;;;;;;9.10;4.40;;;;;;;;;;103810;1292;544898;-73
2024/01/13 00:05:10;;;;;;;7.20;3.50;;;;;;;;;;103728;1292;545371;-73
2024/01/13 00:08:47;;;;;;;8.40;3.60;;;;;;;;;;103789;1289;545233;-72
2024/01/13 00:12:25;;;;;;;8.10;3.80;;;;;;;;;;103640;1295;544766;-72
2024/01/13 00:16:02;;;;;;;8.00;3.40;;;;;;;;;;103744;1291;544993;-72
2024/01/13 00:19:39;;;;;;;8.60;3.90;;;;;;;;;;103466;1293;545637;-72
2024/01/13 00:23:19;;;;;;;8.90;3.50;;;;;;;;;;103622;1295;545141;-73
2024/01/13 00:26:55;;;;;;;8.30;3.50;;;;;;;;;;103633;1292;544763;-72
2024/01/13 00:30:32;;;;;;;8.30;4.00;;;;;;;;;;103688;1292;545684;-73
2024/01/13 00:34:10;;;;;;;10.00;4.00;;;;;;;;;;103650;1290;545157;-72
2024/01/13 00:37:47;;;;;;;8.10;3.30;;;;;;;;;;103806;1289;545786;-69
2024/01/13 00:41:25;;;;;;;9.60;3.80;;;;;;;;;;103770;1292;544956;-72
2024/01/13 00:45:17;;;;;;;10.30;4.00;;;;;;;;;;103661;1292;548164;-73
2024/01/13 00:48:40;;;;;;;9.30;4.30;;;;;;;;;;103715;1289;545626;-72
2024/01/13 00:52:17;;;;;;;9.30;3.60;;;;;;;;;;103709;1292;545729;-73
2024/01/13 00:55:55;;;;;;;8.50;3.70;;;;;;;;;;103895;1287;544863;-72
2024/01/13 00:59:32;;;;;;;9.50;3.60;;;;;;;;;;103745;1289;544859;-72
2024/01/13 01:03:10;;;;;;;8.60;3.60;;;;;;;;;;103628;1289;544980;-72
2024/01/13 01:06:46;;;;;;;10.50;3.90;;;;;;;;;;103772;1289;545174;-73
2024/01/13 01:10:25;;;;;;;9.30;3.50;;;;;;;;;;103691;1292;545329;-72
2024/01/13 01:14:02;;;;;;;8.60;3.80;;;;;;;;;;103734;1289;544777;-73
2024/01/13 01:17:40;;;;;;;9.20;3.90;;;;;;;;;;104003;1287;545939;-73
2024/01/13 01:21:16;;;;;;;10.10;3.50;;;;;;;;;;103806;1289;545265;-72
2024/01/13 01:24:54;;;;;;;10.50;4.50;;;;;;;;;;103865;1288;546232;-72
2024/01/13 01:28:31;;;;;;;10.20;4.80;;;;;;;;;;103719;1291;545110;-73
2024/01/13 01:32:09;;;;;;;8.40;3.50;;;;;;;;;;103711;1292;545379;-72
2024/01/13 01:35:46;;;;;;;9.90;4.20;;;;;;;;;;103782;1289;545436;-72
2024/01/13 01:39:24;;;;;;;9.90;4.00;;;;;;;;;;103990;1288;545662;-73
2024/01/13 01:43:01;;;;;;;9.70;3.80;;;;;;;;;;104070;1286;546191;-72
2024/01/13 01:46:39;;;;;;;9.50;4.30;;;;;;;;;;103733;1291;545413;-72
2024/01/13 01:50:16;;;;;;;10.00;4.40;;;;;;;;;;103695;1292;544971;-72
2024/01/13 01:53:55;;;;;;;10.90;4.40;;;;;;;;;;103715;1292;545141;-73
2024/01/13 01:57:31;;;;;;;8.30;4.10;;;;;;;;;;103658;1292;545304;-71
2024/01/13 02:01:09;;;;;;;11.80;4.40;;;;;;;;;;104612;1284;546159;-72
2024/01/13 02:04:47;;;;;;;10.40;4.10;;;;;;;;;;103782;1288;544824;-73
2024/01/13 02:08:24;;;;;;;9.50;4.20;;;;;;;;;;103747;1289;545480;-72
2024/01/13 02:12:01;;;;;;;11.20;3.80;;;;;;;;;;103660;1290;544993;-72
2024/01/13 02:15:39;;;;;;;10.90;4.40;;;;;;;;;;103754;1289;544984;-73
2024/01/13 02:19:15;;;;;;;9.40;4.00;;;;;;;;;;103718;1292;546224;-72
2024/01/13 02:22:53;;;;;;;9.30;4.00;;;;;;;;;;103724;1291;544747;-72
2024/01/13 02:26:33;;;;;;;9.70;4.30;;;;;;;;;;103711;1292;546002;-70
2024/01/13 02:30:09;;;;;;;9.60;4.10;;;;;;;;;;103733;1303;545263;-72
2024/01/13 02:33:45;;;;;;;11.60;4.40;;;;;;;;;;103768;1296;546124;-72
2024/01/13 02:37:23;;;;;;;9.30;4.30;;;;;;;;;;103809;1295;544835;-72
2024/01/13 02:41:00;;;;;;;8.90;4.40;;;;;;;;;;103742;1289;544858;-72
2024/01/13 02:44:38;;;;;;;8.80;4.30;;;;;;;;;;103728;1294;546077;-71
2024/01/13 02:48:17;;;;;;;11.50;5.40;;;;;;;;;;103729;1291;544860;-73
2024/01/13 02:51:53;;;;;;;10.10;5.10;;;;;;;;;;103705;1289;545008;-72
2024/01/13 02:55:30;;;;;;;10.20;4.70;;;;;;;;;;103693;1292;544922;-72
2024/01/13 02:59:08;;;;;;;10.90;4.90;;;;;;;;;;103811;1289;544711;-72
2024/01/13 03:02:46;;;;;;;10.40;5.10;;;;;;;;;;103863;1289;544827;-70
2024/01/13 03:06:19;;;;;;;11.60;5.60;;;;;;;;;;103701;1292;544951;-72
2024/01/13 03:10:00;;;;;;;10.30;5.40;;;;;;;;;;103775;1292;545775;-72
2024/01/13 03:13:38;;;;;;;11.40;6.00;;;;;;;;;;103782;1289;544707;-72
2024/01/13 03:17:15;;;;;;;10.40;5.10;;;;;;;;;;103710;1294;544974;-72
2024/01/13 03:20:53;;;;;;;11.50;5.60;;;;;;;;;;103795;1289;544821;-73
2024/01/13 03:24:30;;;;;;;10.50;5.80;;;;;;;;;;103674;1291;545449;-72
2024/01/13 03:28:08;;;;;;;9.50;5.20;;;;;;;;;;103658;1291;545075;-72
2024/01/13 03:31:45;;;;;;;11.80;5.60;;;;;;;;;;103580;1292;544993;-73
2024/01/13 03:35:23;;;;;;;10.50;5.30;;;;;;;;;;103770;1289;545050;-72
2024/01/13 03:39:00;;;;;;;11.10;5.60;;;;;;;;;;103907;1292;544887;-70
2024/01/13 03:42:38;;;;;;;9.90;5.80;;;;;;;;;;103790;1290;545115;-72
2024/01/13 03:46:15;;;;;;;11.20;5.60;;;;;;;;;;104180;1289;546425;-73
2024/01/13 03:49:53;;;;;;;8.70;4.60;;;;;;;;;;103691;1292;544771;-72
2024/01/13 03:53:31;;;;;;;10.00;5.20;;;;;;;;;;103754;1290;545605;-72
2024/01/13 03:57:07;;;;;;;9.10;4.60;;;;;;;;;;103688;1290;545057;-73
2024/01/13 04:00:45;;;;;;;9.50;4.80;;;;;;;;;;104108;1289;544718;-72
2024/01/13 04:04:23;;;;;;;10.50;5.10;;;;;;;;;;103787;1289;544914;-72
2024/01/13 04:07:56;;;;;;;9.50;4.70;;;;;;;;;;103788;1292;544890;-72
2024/01/13 04:11:38;;;;;;;8.50;4.60;;;;;;;;;;103630;1295;544801;-73
2024/01/13 04:15:15;;;;;;;9.10;4.70;;;;;;;;;;103792;1292;545088;-72
2024/01/13 04:18:52;;;;;;;8.80;4.60;;;;;;;;;;104519;1286;544970;-71
2024/01/13 04:22:30;;;;;;;8.90;3.90;;;;;;;;;;103797;1289;546243;-72
2024/01/13 04:26:07;;;;;;;8.90;4.50;;;;;;;;;;103683;1290;544866;-73
2024/01/13 04:29:44;;;;;;;9.00;4.60;;;;;;;;;;103697;1295;544936;-73
2024/01/13 04:33:23;;;;;;;11.20;4.50;;;;;;;;;;103681;1292;546163;-72
2024/01/13 04:37:00;;;;;;;9.10;3.80;;;;;;;;;;103767;1291;545691;-73
2024/01/13 04:40:38;;;;;;;11.90;5.30;;;;;;;;;;103724;1291;545343;-72
2024/01/13 04:44:20;;;;;;;12.50;5.30;;;;;;;;;;103604;1290;547843;-72
2024/01/13 04:47:52;;;;;;;8.80;3.90;;;;;;;;;;103898;1292;546427;-72
2024/01/13 04:51:29;;;;;;;8.10;3.30;;;;;;;;;;104004;1292;544705;-71
2024/01/13 04:55:07;;;;;;;7.70;4.10;;;;;;;;;;103696;1291;545650;-73
2024/01/13 04:58:44;;;;;;;8.50;3.80;;;;;;;;;;103685;1296;544830;-73
2024/01/13 05:02:22;;;;;;;7.80;3.40;;;;;;;;;;103672;1289;544801;-71
2024/01/13 05:05:59;;;;;;;11.80;4.70;;;;;;;;;;103759;1291;545377;-72
2024/01/13 05:09:37;;;;;;;8.20;3.50;;;;;;;;;;103729;1292;544971;-72
2024/01/13 05:13:14;;;;;;;8.00;3.40;;;;;;;;;;103778;1289;544831;-72
2024/01/13 05:16:52;;;;;;;6.70;3.20;;;;;;;;;;103706;1292;544777;-72
2024/01/13 05:20:28;;;;;;;7.00;3.00;;;;;;;;;;103803;1290;544890;-72
2024/01/13 05:24:06;;;;;;;6.90;3.40;;;;;;;;;;103773;1292;545156;-72
2024/01/13 05:27:43;;;;;;;7.90;2.90;;;;;;;;;;103719;1291;544974;-72
2024/01/13 05:31:22;;;;;;;7.10;3.20;;;;;;;;;;103730;1293;544823;-73
2024/01/13 05:34:59;;;;;;;7.20;3.30;;;;;;;;;;103792;1289;544585;-74
2024/01/13 05:38:37;;;;;;;8.30;3.50;;;;;;;;;;103625;1297;546012;-73
2024/01/13 05:42:14;;;;;;;9.30;4.70;;;;;;;;;;103750;1290;545966;-72
2024/01/13 05:45:52;;;;;;;10.00;5.40;;;;;;;;;;103739;1291;545459;-72
2024/01/13 05:49:29;;;;;;;6.40;3.10;;;;;;;;;;104472;1286;544959;-72
2024/01/13 05:53:07;;;;;;;6.10;2.70;;;;;;;;;;103713;1295;544748;-72
2024/01/13 05:56:44;;;;;;;6.00;2.90;;;;;;;;;;103711;1289;544997;-72
2024/01/13 06:00:22;;;;;;;6.60;3.10;;;;;;;;;;103726;1304;544974;-72
2024/01/13 06:03:59;;;;;;;6.50;3.10;;;;;;;;;;103749;1292;545451;-72
2024/01/13 06:07:40;;;;;;;6.10;2.60;;;;;;;;;;103733;1291;544748;-73
2024/01/13 06:11:14;;;;;;;5.10;2.50;;;;;;;;;;103730;1291;545073;-72
2024/01/13 06:14:52;;;;;;;5.40;2.20;;;;;;;;;;103733;1294;545025;-72
2024/01/13 06:18:25;;;;;;;5.10;2.30;;;;;;;;;;103896;1289;544868;-72
2024/01/13 06:22:07;;;;;;;5.70;2.10;;;;;;;;;;103717;1289;545358;-72
2024/01/13 06:25:44;;;;;;;5.60;2.30;;;;;;;;;;103897;1289;544722;-72
2024/01/13 06:29:22;;;;;;;6.00;2.20;;;;;;;;;;103664;1291;545926;-72
2024/01/13 06:32:59;;;;;;;5.80;2.40;;;;;;;;;;103721;1290;545117;-72
2024/01/13 06:36:37;;;;;;;4.90;2.20;;;;;;;;;;103689;1292;544874;-72
2024/01/13 06:40:10;;;;;;;5.10;2.30;;;;;;;;;;103841;1292;545697;-72
2024/01/13 06:43:54;;;;;;;4.90;2.00;;;;;;;;;;103581;1295;546697;-72
2024/01/13 06:47:29;;;;;;;5.00;2.20;;;;;;;;;;103864;1289;545478;-72
2024/01/13 06:51:06;;;;;;;6.20;2.40;;;;;;;;;;103593;1304;544755;-72
2024/01/13 06:54:43;;;;;;;5.60;2.10;;;;;;;;;;104086;1285;545683;-73
2024/01/13 06:58:18;;;;;;;6.20;2.20;;;;;;;;;;103653;1289;544657;-73
2024/01/13 07:01:54;;;;;;;6.90;2.60;;;;;;;;;;103727;1289;545579;-73
2024/01/13 07:05:36;;;;;;;5.70;2.40;;;;;;;;;;103805;1291;545918;-72
2024/01/13 07:09:13;;;;;;;6.20;1.90;;;;;;;;;;103740;1289;545366;-72
2024/01/13 07:12:51;;;;;;;4.80;1.90;;;;;;;;;;103783;1289;545423;-72
2024/01/13 07:16:28;;;;;;;4.70;2.00;;;;;;;;;;104641;1283;544946;-72
2024/01/13 07:20:06;;;;;;;6.70;2.50;;;;;;;;;;103717;1292;544769;-73
2024/01/13 07:23:43;;;;;;;6.30;2.70;;;;;;;;;;103926;1288;544955;-72
2024/01/13 07:27:21;;;;;;;5.00;2.10;;;;;;;;;;103740;1292;545887;-72
2024/01/13 07:30:58;;;;;;;5.20;2.10;;;;;;;;;;103707;1301;545330;-72
2024/01/13 07:34:35;;;;;;;5.60;2.30;;;;;;;;;;103804;1289;545397;-72
2024/01/13 07:38:13;;;;;;;6.90;2.40;;;;;;;;;;103750;1289;544749;-72
2024/01/13 07:41:50;;;;;;;5.30;2.40;;;;;;;;;;103651;1291;546305;-72
2024/01/13 07:45:27;;;;;;;5.80;2.30;;;;;;;;;;103752;1289;545927;-72
2024/01/13 07:49:05;;;;;;;6.10;2.70;;;;;;;;;;103619;1292;545611;-72
2024/01/13 07:52:42;;;;;;;6.30;2.80;;;;;;;;;;103660;1289;544796;-72
2024/01/13 07:56:20;;;;;;;11.50;5.90;;;;;;;;;;103783;1288;545060;-72
2024/01/13 07:59:57;;;;;;;7.90;3.50;;;;;;;;;;103666;1291;544880;-72
2024/01/13 08:03:35;;;;;;;9.20;5.30;;;;;;;;;;103726;1292;545668;-72
2024/01/13 08:07:12;;;;;;;10.70;6.40;;;;;;;;;;103901;1292;545298;-72
2024/01/13 08:10:50;;;;;;;6.50;2.90;;;;;;;;;;103714;1288;545274;-72
2024/01/13 08:14:27;;;;;;;9.20;4.60;;;;;;;;;;103729;1289;545484;-72
2024/01/13 08:18:04;;;;;;;8.30;5.00;;;;;;;;;;103561;1291;545061;-73
2024/01/13 08:21:42;;;;;;;8.60;3.40;;;;;;;;;;103708;1292;545029;-72
2024/01/13 08:25:19;;;;;;;4.90;2.10;;;;;;;;;;103806;1289;545050;-73
2024/01/13 08:28:53;;;;;;;5.60;2.00;;;;;;;;;;104248;1286;544795;-72
2024/01/13 08:32:34;;;;;;;5.20;2.00;;;;;;;;;;104092;1285;544794;-72
2024/01/13 08:36:11;;;;;;;5.30;2.60;;;;;;;;;;103774;1290;544823;-72
2024/01/13 08:39:50;;;;;;;6.50;3.20;;;;;;;;;;103646;1291;544979;-72
2024/01/13 08:43:27;;;;;;;6.50;3.10;;;;;;;;;;103662;1291;544879;-73
2024/01/13 08:47:31;;;;;;;5.10;2.60;;;;;;;;;;103684;1291;545465;-71
2024/01/13 08:50:42;;;;;;;5.10;1.80;;;;;;;;;;103812;1295;545593;-74
2024/01/13 08:54:20;;;;;;;4.40;1.90;;;;;;;;;;103823;1293;545053;-72
2024/01/13 08:57:57;;;;;;;7.50;3.40;;;;;;;;;;104151;1286;544969;-72
2024/01/13 09:01:35;;;;;;;5.00;2.10;;;;;;;;;;103677;1292;544718;-72
2024/01/13 09:05:13;;;;;;;7.80;3.80;;;;;;;;;;103728;1295;545049;-72
2024/01/13 09:08:49;;;;;;;5.50;2.30;;;;;;;;;;103720;1292;544853;-72
2024/01/13 09:12:23;;;;;;;25.10;9.50;;;;;;;;;;103872;1292;545081;-72
2024/01/13 09:16:05;;;;;;;42.10;16.10;;;;;;;;;;103633;1291;545104;-72
2024/01/13 09:19:44;;;;;;;24.50;14.50;;;;;;;;;;103647;1294;545019;-72
2024/01/13 09:23:20;;;;;;;10.50;5.80;;;;;;;;;;103712;1291;544960;-72
2024/01/13 09:26:57;;;;;;;15.70;9.60;;;;;;;;;;103756;1291;546237;-72
2024/01/13 09:30:50;;;;;;;13.10;7.30;;;;;;;;;;103813;1292;547898;-73
2024/01/13 09:34:11;;;;;;;8.50;4.20;;;;;;;;;;103698;1290;545979;-72
2024/01/13 09:37:50;;;;;;;9.80;6.00;;;;;;;;;;103687;1290;545356;-72
2024/01/13 09:41:27;;;;;;;7.40;3.70;;;;;;;;;;103720;1297;544721;-72
2024/01/13 09:45:05;;;;;;;8.30;3.50;;;;;;;;;;103903;1290;545596;-72
2024/01/13 09:48:43;;;;;;;7.10;3.30;;;;;;;;;;103769;1289;545779;-72
2024/01/13 09:52:20;;;;;;;5.40;2.00;;;;;;;;;;103724;1292;545067;-72
2024/01/13 09:55:55;;;;;;;5.40;2.00;;;;;;;;;;103832;1289;545593;-73
2024/01/13 09:59:36;;;;;;;5.10;2.30;;;;;;;;;;103669;1292;545067;-72
2024/01/13 10:03:11;;;;;;;9.10;4.50;;;;;;;;;;103880;1289;544951;-72
2024/01/13 10:06:49;;;;;;;5.50;2.10;;;;;;;;;;103834;1289;545038;-73
2024/01/13 10:10:26;;;;;;;9.50;4.10;;;;;;;;;;103731;1295;545955;-72
2024/01/13 10:14:05;;;;;;;9.30;4.70;;;;;;;;;;103805;1297;544880;-72
2024/01/13 10:17:37;;;;;;;9.40;4.10;;;;;;;;;;104008;1289;545106;-72
2024/01/13 10:21:19;;;;;;;8.30;4.00;;;;;;;;;;103924;1293;544975;-73
2024/01/13 10:24:52;;;;;;;6.50;2.80;;;;;;;;;;104115;1286;544691;-72
2024/01/13 10:28:34;;;;;;;8.80;4.10;;;;;;;;;;105823;1289;544979;-72
2024/01/13 10:32:12;;;;;;;7.60;3.50;;;;;;;;;;103700;1292;546002;-72
2024/01/13 10:35:49;;;;;;;6.70;2.40;;;;;;;;;;103742;1291;545765;-72
2024/01/13 10:39:22;;;;;;;7.80;3.40;;;;;;;;;;104101;1288;545479;-73
2024/01/13 10:43:11;;;;;;;8.00;3.00;;;;;;;;;;103450;1298;547973;-73
2024/01/13 10:46:43;;;;;;;8.30;3.40;;;;;;;;;;103728;1291;544988;-73
2024/01/13 10:50:19;;;;;;;10.50;4.60;;;;;;;;;;103670;1292;544957;-72
2024/01/13 10:53:58;;;;;;;8.20;3.80;;;;;;;;;;103728;1289;544828;-72
2024/01/13 10:57:40;;;;;;;7.90;4.00;;;;;;;;;;103637;1291;548128;-72
2024/01/13 11:01:11;;;;;;;13.00;8.00;;;;;;;;;;103691;1292;544789;-72
2024/01/13 11:04:49;;;;;;;6.00;3.00;;;;;;;;;;103588;1293;544805;-72
2024/01/13 11:08:26;;;;;;;8.60;4.40;;;;;;;;;;103691;1291;545174;-73
2024/01/13 11:12:20;;;;;;;6.00;2.70;;;;;;;;;;103752;1304;544992;-73
2024/01/13 11:15:52;;;;;;;8.40;4.60;;;;;;;;;;103659;1292;545090;-73
2024/01/13 11:19:18;;;;;;;7.10;3.40;;;;;;;;;;103743;1291;545154;-72
2024/01/13 11:23:01;;;;;;;11.00;4.30;;;;;;;;;;103634;1289;547991;-71
2024/01/13 11:26:36;;;;;;;8.50;4.10;;;;;;;;;;103681;1291;545361;-73
2024/01/13 11:30:10;;;;;;;11.30;6.70;;;;;;;;;;103803;1300;546119;-72
2024/01/13 11:33:48;;;;;;;8.30;4.80;;;;;;;;;;103566;1293;544828;-73
2024/01/13 11:37:31;;;;;;;9.10;4.80;;;;;;;;;;103566;1293;548229;-73
2024/01/13 11:41:03;;;;;;;12.20;8.00;;;;;;;;;;103585;1295;544974;-72
2024/01/13 11:44:44;;;;;;;7.90;4.20;;;;;;;;;;103795;1289;544979;-73
2024/01/13 11:48:30;;;;;;;6.50;2.80;;;;;;;;;;103969;1289;546034;-72
2024/01/13 11:52:01;;;;;;;7.50;4.10;;;;;;;;;;104089;1289;545055;-72
2024/01/13 11:55:34;;;;;;;7.10;3.50;;;;;;;;;;103712;1291;545395;-73
2024/01/13 11:59:10;;;;;;;6.70;3.10;;;;;;;;;;103752;1289;545561;-72
2024/01/13 12:02:48;;;;;;;6.90;3.20;;;;;;;;;;103712;1295;545268;-71
2024/01/13 12:06:25;;;;;;;7.00;3.10;;;;;;;;;;103745;1290;545264;-72
2024/01/13 12:10:04;;;;;;;8.00;4.60;;;;;;;;;;103785;1292;544702;-73
2024/01/13 12:13:40;;;;;;;36.30;14.30;;;;;;;;;;103666;1292;545568;-73
2024/01/13 12:17:18;;;;;;;62.10;36.40;;;;;;;;;;103769;1289;544966;-73
2024/01/13 12:20:58;;;;;;;31.20;13.70;;;;;;;;;;103750;1294;544793;-73
2024/01/13 12:24:33;;;;;;;37.30;13.00;;;;;;;;;;103696;1291;545120;-72
2024/01/13 12:28:10;;;;;;;33.30;12.80;;;;;;;;;;103989;1289;544752;-73
2024/01/13 12:31:47;;;;;;;20.60;8.40;;;;;;;;;;103342;1298;544953;-73
2024/01/13 12:35:25;;;;;;;22.30;9.10;;;;;;;;;;104593;1282;544743;-72
2024/01/13 12:39:03;;;;;;;19.60;9.20;;;;;;;;;;103690;1289;544996;-72
2024/01/13 12:42:40;;;;;;;15.50;7.70;;;;;;;;;;104535;1282;545251;-72
2024/01/13 12:46:18;;;;;;;13.40;7.10;;;;;;;;;;103715;1293;544887;-72
2024/01/13 12:50:05;;;;;;;11.40;7.50;;;;;;;;;;103753;1292;545359;-72
2024/01/13 12:53:33;;;;;;;9.70;5.10;;;;;;;;;;103739;1292;545035;-73
2024/01/13 12:57:11;;;;;;;9.50;4.90;;;;;;;;;;103722;1295;544973;-71
2024/01/13 13:00:48;;;;;;;8.80;4.50;;;;;;;;;;104142;1289;544975;-72
2024/01/13 13:04:25;;;;;;;10.10;5.20;;;;;;;;;;103696;1289;545097;-73
2024/01/13 13:08:03;;;;;;;9.50;5.30;;;;;;;;;;103718;1288;544778;-72
2024/01/13 13:11:39;;;;;;;10.70;5.90;;;;;;;;;;103639;1292;545364;-73
2024/01/13 13:15:18;;;;;;;12.80;7.20;;;;;;;;;;103598;1292;544815;-72
2024/01/13 13:18:55;;;;;;;11.30;5.60;;;;;;;;;;103735;1289;544784;-72
2024/01/13 13:22:39;;;;;;;10.80;5.60;;;;;;;;;;103599;1291;545257;-72
2024/01/13 13:26:10;;;;;;;8.50;4.90;;;;;;;;;;103833;1289;544941;-71
2024/01/13 13:29:48;;;;;;;9.30;5.10;;;;;;;;;;103687;1291;545656;-72
2024/01/13 13:33:25;;;;;;;8.60;4.80;;;;;;;;;;103885;1295;545084;-69
2024/01/13 13:37:03;;;;;;;9.90;5.50;;;;;;;;;;103759;1292;546020;-72
2024/01/13 13:40:39;;;;;;;10.40;5.70;;;;;;;;;;103741;1295;545664;-72
2024/01/13 13:44:18;;;;;;;12.60;6.00;;;;;;;;;;103754;1291;545034;-73
2024/01/13 13:47:56;;;;;;;53.00;23.10;;;;;;;;;;103669;1290;545288;-72
2024/01/13 13:51:37;;;;;;;34.70;17.10;;;;;;;;;;103719;1292;545423;-72
2024/01/13 13:55:09;;;;;;;64.80;31.70;;;;;;;;;;103813;1292;545073;-72
2024/01/13 13:58:47;;;;;;;80.40;32.60;;;;;;;;;;103807;1291;544968;-72
2024/01/13 14:02:23;;;;;;;47.50;25.30;;;;;;;;;;103794;1289;545042;-73
2024/01/13 14:06:03;;;;;;;101.60;45.90;;;;;;;;;;103709;1292;545697;-73
2024/01/13 14:09:39;;;;;;;11.70;6.60;;;;;;;;;;103779;1292;545932;-72
2024/01/13 14:13:17;;;;;;;20.70;11.20;;;;;;;;;;104043;1291;545363;-72
2024/01/13 14:16:54;;;;;;;22.40;11.00;;;;;;;;;;103599;1291;545619;-73
2024/01/13 14:20:38;;;;;;;19.60;10.30;;;;;;;;;;103439;1295;546147;-72
2024/01/13 14:24:09;;;;;;;10.00;5.40;;;;;;;;;;103833;1288;545193;-70
2024/01/13 14:27:48;;;;;;;12.20;7.40;;;;;;;;;;103803;1293;544763;-73
2024/01/13 14:31:24;;;;;;;18.40;11.10;;;;;;;;;;103806;1293;545831;-72
2024/01/13 14:35:02;;;;;;;15.80;10.90;;;;;;;;;;103675;1295;544783;-72
2024/01/13 14:38:39;;;;;;;16.60;11.20;;;;;;;;;;103693;1291;545487;-73
2024/01/13 14:42:17;;;;;;;12.00;8.00;;;;;;;;;;103672;1289;544749;-73
2024/01/13 14:45:55;;;;;;;10.70;6.90;;;;;;;;;;103715;1292;544979;-72
2024/01/13 14:49:32;;;;;;;19.60;9.90;;;;;;;;;;103622;1291;544793;-72
2024/01/13 14:53:05;;;;;;;12.80;8.20;;;;;;;;;;103762;1290;544795;-72
2024/01/13 14:56:47;;;;;;;12.10;6.90;;;;;;;;;;103936;1289;545831;-73
2024/01/13 15:00:24;;;;;;;12.00;7.00;;;;;;;;;;103713;1296;545650;-72
2024/01/13 15:04:01;;;;;;;9.90;6.10;;;;;;;;;;103749;1292;544777;-72
2024/01/13 15:07:45;;;;;;;10.90;5.60;;;;;;;;;;103681;1289;548008;-73
2024/01/13 15:11:16;;;;;;;13.40;6.70;;;;;;;;;;103795;1290;545782;-72
2024/01/13 15:14:53;;;;;;;10.70;6.20;;;;;;;;;;103676;1289;545006;-73
2024/01/13 15:18:31;;;;;;;10.40;6.00;;;;;;;;;;103626;1291;545005;-72
2024/01/13 15:22:08;;;;;;;18.70;8.40;;;;;;;;;;103769;1289;545090;-73
2024/01/13 15:25:46;;;;;;;16.90;8.30;;;;;;;;;;104319;1283;545091;-73
2024/01/13 15:29:24;;;;;;;12.50;7.80;;;;;;;;;;103776;1293;545349;-73
2024/01/13 15:33:00;;;;;;;10.20;5.30;;;;;;;;;;104664;1283;545764;-73
2024/01/13 15:36:37;;;;;;;13.40;7.00;;;;;;;;;;103449;1295;545461;-74
2024/01/13 15:40:16;;;;;;;11.60;7.00;;;;;;;;;;103858;1292;545069;-74
2024/01/13 15:43:52;;;;;;;12.60;7.60;;;;;;;;;;103762;1289;545080;-72
2024/01/13 15:47:31;;;;;;;21.10;10.30;;;;;;;;;;103790;1289;546100;-72
2024/01/13 15:51:07;;;;;;;21.80;10.40;;;;;;;;;;103727;1301;546223;-72
2024/01/13 15:54:45;;;;;;;15.80;8.80;;;;;;;;;;103691;1289;544914;-73
2024/01/13 15:58:23;;;;;;;15.80;9.40;;;;;;;;;;103954;1291;545018;-73
2024/01/13 16:02:00;;;;;;;47.30;23.90;;;;;;;;;;103818;1289;545057;-72
2024/01/13 16:05:37;;;;;;;16.00;9.40;;;;;;;;;;103572;1291;545411;-73
2024/01/13 16:09:15;;;;;;;11.80;8.10;;;;;;;;;;103618;1291;545046;-73
2024/01/13 16:12:52;;;;;;;10.60;6.70;;;;;;;;;;103740;1292;546394;-74
2024/01/13 16:16:30;;;;;;;12.80;7.60;;;;;;;;;;103834;1292;544826;-73
2024/01/13 16:20:08;;;;;;;23.90;10.70;;;;;;;;;;103648;1291;545865;-73
2024/01/13 16:23:45;;;;;;;15.30;7.80;;;;;;;;;;103672;1295;545872;-73
2024/01/13 16:27:27;;;;;;;12.10;7.30;;;;;;;;;;103589;1291;547786;-73
2024/01/13 16:31:00;;;;;;;12.40;7.50;;;;;;;;;;103715;1298;545189;-73
2024/01/13 16:34:36;;;;;;;13.40;7.50;;;;;;;;;;103717;1289;545616;-73
2024/01/13 16:38:15;;;;;;;10.90;6.30;;;;;;;;;;103600;1291;545022;-72
2024/01/13 16:41:48;;;;;;;11.80;7.00;;;;;;;;;;103885;1289;546589;-74
2024/01/13 16:45:30;;;;;;;12.00;7.60;;;;;;;;;;103636;1291;544854;-73
2024/01/13 16:49:06;;;;;;;11.30;6.70;;;;;;;;;;103809;1291;545613;-73
2024/01/13 16:52:50;;;;;;;14.50;8.00;;;;;;;;;;103475;1292;548091;-73
2024/01/13 16:56:23;;;;;;;15.80;9.60;;;;;;;;;;103827;1295;546103;-74
2024/01/13 17:00:00;;;;;;;17.10;10.20;;;;;;;;;;103794;1302;545665;-73
2024/01/13 17:03:37;;;;;;;14.90;9.00;;;;;;;;;;103714;1289;544789;-73
2024/01/13 17:07:19;;;;;;;13.40;7.80;;;;;;;;;;103642;1292;544991;-72
2024/01/13 17:10:51;;;;;;;10.10;5.60;;;;;;;;;;103739;1292;546409;-74
2024/01/13 17:14:30;;;;;;;23.10;12.50;;;;;;;;;;104197;1285;545006;-73
2024/01/13 17:18:06;;;;;;;38.20;17.90;;;;;;;;;;103759;1289;544999;-73
2024/01/13 17:21:44;;;;;;;16.60;9.70;;;;;;;;;;103678;1295;544973;-73
2024/01/13 17:25:28;;;;;;;16.50;11.20;;;;;;;;;;103794;1288;544987;-74
2024/01/13 17:28:59;;;;;;;20.10;11.20;;;;;;;;;;103726;1291;545218;-73
2024/01/13 17:32:44;;;;;;;15.40;8.60;;;;;;;;;;103750;1289;545702;-72
2024/01/13 17:36:14;;;;;;;17.80;9.90;;;;;;;;;;103795;1290;545843;-73
2024/01/13 17:39:51;;;;;;;18.60;9.90;;;;;;;;;;103855;1292;544982;-74
2024/01/13 17:43:29;;;;;;;21.50;10.80;;;;;;;;;;103678;1290;544885;-73
2024/01/13 17:47:06;;;;;;;19.70;10.90;;;;;;;;;;103788;1291;544812;-73
2024/01/13 17:50:50;;;;;;;24.70;13.80;;;;;;;;;;103604;1295;547900;-73
2024/01/13 17:54:21;;;;;;;19.10;9.50;;;;;;;;;;104006;1288;545557;-73
2024/01/13 17:57:59;;;;;;;22.00;10.50;;;;;;;;;;103794;1295;544984;-73
2024/01/13 18:01:36;;;;;;;23.40;11.40;;;;;;;;;;103687;1295;545127;-73
2024/01/13 18:05:16;;;;;;;26.20;11.30;;;;;;;;;;103759;1289;544914;-73
2024/01/13 18:08:53;;;;;;;29.00;13.40;;;;;;;;;;103836;1288;545081;-73
2024/01/13 18:12:29;;;;;;;25.90;11.70;;;;;;;;;;104301;1291;545147;-73
2024/01/13 18:16:06;;;;;;;29.00;13.70;;;;;;;;;;103683;1290;545814;-74
2024/01/13 18:19:44;;;;;;;24.00;12.00;;;;;;;;;;104145;1285;545446;-74
2024/01/13 18:23:17;;;;;;;19.00;9.00;;;;;;;;;;103868;1292;546251;-72
2024/01/13 18:26:58;;;;;;;15.50;8.30;;;;;;;;;;103886;1289;544912;-71
2024/01/13 18:30:37;;;;;;;14.20;7.90;;;;;;;;;;103738;1292;544849;-73
2024/01/13 18:34:19;;;;;;;13.90;8.10;;;;;;;;;;104528;1289;545980;-72
2024/01/13 18:37:51;;;;;;;10.70;5.90;;;;;;;;;;103737;1295;546001;-73
2024/01/13 18:41:28;;;;;;;11.50;5.90;;;;;;;;;;103754;1292;546062;-73
2024/01/13 18:45:07;;;;;;;13.80;8.20;;;;;;;;;;103642;1291;545212;-74
2024/01/13 18:48:43;;;;;;;30.10;14.80;;;;;;;;;;103698;1292;544814;-73
2024/01/13 18:52:21;;;;;;;27.20;14.90;;;;;;;;;;103708;1289;545741;-73
2024/01/13 18:55:58;;;;;;;27.50;11.70;;;;;;;;;;103731;1291;544948;-73
2024/01/13 18:59:37;;;;;;;18.70;10.50;;;;;;;;;;103698;1292;546677;-73
2024/01/13 19:03:13;;;;;;;16.30;9.00;;;;;;;;;;103693;1290;544838;-71
2024/01/13 19:06:50;;;;;;;12.70;7.30;;;;;;;;;;103604;1291;544961;-73
2024/01/13 19:10:30;;;;;;;10.20;5.40;;;;;;;;;;103783;1302;545794;-72
2024/01/13 19:14:05;;;;;;;13.50;7.70;;;;;;;;;;103707;1292;545242;-73
2024/01/13 19:17:43;;;;;;;12.70;6.40;;;;;;;;;;103745;1292;545004;-73
2024/01/13 19:21:16;;;;;;;10.60;5.70;;;;;;;;;;103901;1295;545410;-71
2024/01/13 19:24:58;;;;;;;14.00;6.20;;;;;;;;;;103803;1291;545472;-72
2024/01/13 19:28:35;;;;;;;10.50;5.20;;;;;;;;;;103687;1292;545043;-72
2024/01/13 19:32:13;;;;;;;13.40;5.90;;;;;;;;;;103834;1289;545053;-72
2024/01/13 19:35:52;;;;;;;10.40;4.50;;;;;;;;;;103751;1293;544907;-73
2024/01/13 19:39:29;;;;;;;10.10;5.00;;;;;;;;;;103882;1289;544741;-73
2024/01/13 19:43:05;;;;;;;10.40;5.10;;;;;;;;;;103847;1291;544864;-73
2024/01/13 19:46:43;;;;;;;10.10;4.80;;;;;;;;;;103743;1292;544988;-73
2024/01/13 19:50:16;;;;;;;9.40;4.30;;;;;;;;;;104556;1289;545360;-74
2024/01/13 19:53:58;;;;;;;11.50;5.40;;;;;;;;;;104206;1286;545761;-73
2024/01/13 19:57:31;;;;;;;12.90;6.50;;;;;;;;;;103704;1291;545007;-74
2024/01/13 20:01:09;;;;;;;29.40;15.00;;;;;;;;;;103799;1292;544912;-72
2024/01/13 20:04:50;;;;;;;15.80;9.20;;;;;;;;;;103677;1290;544898;-72
2024/01/13 20:08:30;;;;;;;14.70;9.60;;;;;;;;;;103744;1291;544881;-73
2024/01/13 20:12:05;;;;;;;8.50;3.80;;;;;;;;;;103765;1289;544906;-73
2024/01/13 20:15:43;;;;;;;11.60;6.10;;;;;;;;;;103685;1292;545654;-72
2024/01/13 20:19:21;;;;;;;8.60;4.20;;;;;;;;;;103681;1294;545665;-74
2024/01/13 20:22:58;;;;;;;8.20;3.90;;;;;;;;;;103885;1290;545332;-73
2024/01/13 20:26:35;;;;;;;8.00;4.00;;;;;;;;;;103471;1295;546072;-73
2024/01/13 20:30:13;;;;;;;19.50;9.50;;;;;;;;;;103771;1292;545050;-73
2024/01/13 20:33:47;;;;;;;21.30;12.30;;;;;;;;;;103860;1289;544806;-72
2024/01/13 20:37:27;;;;;;;7.60;3.60;;;;;;;;;;103657;1294;544801;-73
2024/01/13 20:41:08;;;;;;;6.50;2.90;;;;;;;;;;103745;1292;545531;-73
2024/01/13 20:44:42;;;;;;;6.50;2.80;;;;;;;;;;103778;1289;544902;-73
2024/01/13 20:48:19;;;;;;;6.30;2.60;;;;;;;;;;103741;1289;545845;-73
2024/01/13 20:51:57;;;;;;;10.70;5.70;;;;;;;;;;103749;1292;544831;-72